.
WxDataArchive / Data Records for 2008-01-07
2008-01-06 January 2008 2008-01-08

Data Records for Monday, 07 January 2008

Time	Temp	Chill	HIndex	Humid	Dewpt	 Wind 	HiWind	WindDir	Rain 	Barom 
-----	----	-----	------	-----	-----	------	------	-------	-----	----- 
00:00	57.3	57.3	57.3	87	53.5	2	7	248	0.00	29.854 
00:05	57.3	57.3	57.3	87	53.5	3	12	248	0.00	29.853 
00:10	57.3	57.3	57.3	88	53.8	3	10	248	0.00	29.858 
00:15	57.5	57.5	57.5	88	54.0	3	7	248	0.00	29.859 
00:20	57.6	57.6	57.6	87	53.8	2	6	248	0.00	29.858 
00:25	57.6	57.6	57.6	87	53.8	3	10	248	0.00	29.859 
00:30	57.8	57.8	57.8	87	54.0	3	7	248	0.00	29.860 
00:35	58.0	58.0	58.0	87	54.1	4	10	248	0.00	29.859 
00:40	58.1	58.1	58.1	86	53.9	3	7	248	0.00	29.859 
00:45	58.3	58.3	58.3	86	54.1	3	10	248	0.00	29.860 
00:50	58.4	58.4	58.4	86	54.2	3	9	248	0.00	29.860 
00:55	58.4	58.4	58.4	86	54.2	3	6	248	0.00	29.860 
01:00	58.4	58.4	58.4	86	54.2	3	7	248	0.00	29.861 
01:05	58.4	58.4	58.4	86	54.2	3	9	248	0.00	29.860 
01:10	58.4	58.4	58.4	86	54.2	3	7	270	0.00	29.860 
01:15	58.4	58.4	58.4	86	54.2	3	6	248	0.00	29.862 
01:20	58.4	58.4	58.4	86	54.2	3	10	270	0.00	29.860 
01:25	58.4	58.4	58.4	86	54.2	3	7	248	0.00	29.860 
01:30	58.4	58.4	58.4	85	53.9	4	9	248	0.00	29.859 
01:35	58.6	58.6	58.6	85	54.1	3	10	248	0.00	29.860 
01:40	58.4	58.4	58.4	85	53.9	3	9	270	0.00	29.859 
01:45	58.6	58.6	58.6	86	54.4	3	9	248	0.00	29.858 
01:50	58.6	58.6	58.6	86	54.4	3	9	248	0.00	29.859 
01:55	58.7	58.7	58.7	85	54.2	3	9	248	0.00	29.859 
02:00	58.9	58.9	58.9	85	54.4	4	10	248	0.00	29.861 
02:05	59.0	59.0	59.0	85	54.5	3	9	248	0.00	29.863 
02:10	59.0	59.0	59.0	84	54.2	4	10	248	0.00	29.864 
02:15	59.2	59.2	59.2	84	54.4	3	9	248	0.00	29.864 
02:20	59.2	59.2	59.2	84	54.4	3	9	248	0.00	29.865 
02:25	59.3	59.3	59.3	84	54.5	4	11	248	0.00	29.866 
02:30	59.3	59.3	59.3	84	54.5	3	6	248	0.00	29.870 
02:35	59.3	59.3	59.3	84	54.5	3	13	248	0.00	29.871 
02:40	59.3	59.3	59.3	84	54.5	3	11	248	0.00	29.874 
02:45	59.5	59.5	59.5	84	54.7	4	8	248	0.00	29.874 
02:50	59.5	59.5	59.5	84	54.7	4	11	248	0.00	29.876 
02:55	59.5	59.5	59.5	84	54.7	4	11	248	0.00	29.878 
03:00	59.5	59.5	59.5	84	54.7	3	10	248	0.00	29.881 
03:05	59.5	59.5	59.5	84	54.7	3	7	270	0.00	29.885 
03:10	59.5	59.5	59.5	84	54.7	4	9	248	0.00	29.885 
03:15	59.5	59.5	59.5	84	54.7	2	7	248	0.00	29.887 
03:20	59.5	59.5	59.5	84	54.7	3	7	248	0.00	29.887 
03:25	59.3	59.3	59.3	84	54.5	3	11	248	0.00	29.888 
03:30	59.3	59.3	59.3	84	54.5	3	7	248	0.00	29.888 
03:35	59.3	59.3	59.3	84	54.5	3	9	248	0.00	29.888 
03:40	59.3	59.3	59.3	84	54.5	3	7	248	0.00	29.889 
03:45	59.3	59.3	59.3	84	54.5	4	11	270	0.00	29.889 
03:50	59.3	59.3	59.3	84	54.5	2	6	248	0.00	29.890 
03:55	59.3	59.3	59.3	84	54.5	3	9	248	0.00	29.891 
04:00	59.3	59.3	59.3	84	54.5	3	7	248	0.00	29.892 
04:05	59.3	59.3	59.3	84	54.5	3	8	248	0.00	29.892 
04:10	59.3	59.3	59.3	84	54.5	3	7	248	0.00	29.892 
04:15	59.2	59.2	59.2	84	54.4	2	9	248	0.00	29.893 
04:20	59.2	59.2	59.2	84	54.4	3	9	248	0.00	29.894 
04:25	59.3	59.3	59.3	84	54.5	3	10	248	0.00	29.895 
04:30	59.2	59.2	59.2	84	54.4	2	9	248	0.00	29.893 
04:35	59.2	59.2	59.2	84	54.4	3	7	248	0.00	29.895 
04:40	59.2	59.2	59.2	85	54.7	2	5	248	0.00	29.895 
04:45	59.0	59.0	59.0	85	54.5	1	5	225	0.00	29.893 
04:50	59.0	59.0	59.0	85	54.5	1	5	270	0.00	29.895 
04:55	58.9	58.9	58.9	85	54.4	1	4	270	0.00	29.894 
05:00	58.7	58.7	58.7	85	54.2	1	4	248	0.00	29.896 
05:05	58.7	58.7	58.7	85	54.2	2	5	292	0.00	29.897 
05:10	58.7	58.7	58.7	86	54.5	1	7	248	0.00	29.901 
05:15	58.7	58.7	58.7	86	54.5	2	10	248	0.00	29.902 
05:20	58.7	58.7	58.7	86	54.5	2	4	248	0.00	29.903 
05:25	58.7	58.7	58.7	86	54.5	1	4	270	0.00	29.904 
05:30	58.7	58.7	58.7	86	54.5	1	5	270	0.00	29.905 
05:35	58.6	58.6	58.6	86	54.4	1	5	248	0.00	29.905 
05:40	58.6	58.6	58.6	86	54.4	2	6	248	0.00	29.905 
05:45	58.6	58.6	58.6	86	54.4	2	10	225	0.00	29.904 
05:50	58.4	58.4	58.4	86	54.2	1	6	248	0.00	29.905 
05:55	58.4	58.4	58.4	87	54.5	2	8	248	0.00	29.906 
06:00	58.4	58.4	58.4	87	54.5	2	5	248	0.00	29.906 
06:05	58.4	58.4	58.4	87	54.5	2	7	248	0.00	29.905 
06:10	58.3	58.3	58.3	87	54.4	1	5	248	0.00	29.906 
06:15	58.4	58.4	58.4	87	54.5	2	4	248	0.00	29.907 
06:20	58.4	58.4	58.4	87	54.5	1	4	248	0.00	29.911 
06:25	58.4	58.4	58.4	87	54.5	1	4	248	0.00	29.912 
06:30	58.4	58.4	58.4	87	54.5	1	5	248	0.00	29.912 
06:35	58.6	58.6	58.6	87	54.7	1	5	270	0.00	29.911 
06:40	58.6	58.6	58.6	87	54.7	1	4	248	0.00	29.912 
06:45	58.6	58.6	58.6	87	54.7	1	5	248	0.00	29.917 
06:50	58.6	58.6	58.6	87	54.7	1	4	248	0.00	29.917 
06:55	58.6	58.6	58.6	87	54.7	1	7	248	0.00	29.916 
07:00	58.6	58.6	58.6	87	54.7	2	5	248	0.00	29.917 
07:05	58.4	58.4	58.4	87	54.5	1	4	248	0.00	29.914 
07:10	58.3	58.3	58.3	87	54.4	1	4	248	0.00	29.916 
07:15	58.3	58.3	58.3	88	54.8	1	5	248	0.00	29.918 
07:20	58.3	58.3	58.3	88	54.8	1	2	270	0.00	29.919 
07:25	58.1	58.1	58.1	88	54.6	2	5	248	0.00	29.919 
07:30	58.3	58.3	58.3	88	54.8	1	5	248	0.00	29.920 
07:35	58.3	58.3	58.3	88	54.8	2	4	248	0.00	29.921 
07:40	58.4	58.4	58.4	88	54.9	2	6	270	0.00	29.921 
07:45	58.6	58.6	58.6	88	55.1	2	6	248	0.00	29.920 
07:50	58.6	58.6	58.6	88	55.1	2	6	248	0.00	29.920 
07:55	58.6	58.6	58.6	88	55.1	2	7	248	0.00	29.921 
08:00	58.6	58.6	58.6	88	55.1	2	6	270	0.00	29.923 
08:05	58.6	58.6	58.6	87	54.7	2	6	248	0.00	29.924 
08:10	58.6	58.6	58.6	88	55.1	2	5	270	0.00	29.927 
08:15	58.6	58.6	58.6	87	54.7	2	7	248	0.00	29.929 
08:20	58.7	58.7	58.7	87	54.8	3	7	248	0.00	29.930 
08:25	58.7	58.7	58.7	88	55.2	2	10	248	0.00	29.932 
08:30	58.7	58.7	58.7	87	54.8	2	7	270	0.00	29.931 
08:35	58.7	58.7	58.7	88	55.2	1	5	248	0.00	29.926 
08:40	58.7	58.7	58.7	88	55.2	2	5	90	0.00	29.926 
08:45	58.7	58.7	58.7	88	55.2	2	7	338	0.00	29.920 
08:50	58.6	58.6	58.6	88	55.1	2	5	45	0.00	29.918 
08:55	58.7	58.7	58.7	88	55.2	2	4	22	0.00	29.919 
09:00	58.7	58.7	58.7	88	55.2	2	7	22	0.00	29.921 
09:05	58.7	58.7	58.7	88	55.2	2	4	270	0.00	29.925 
09:10	58.9	58.9	58.9	88	55.3	1	5	270	0.00	29.926 
09:15	59.0	59.0	59.0	88	55.4	1	4	248	0.00	29.927 
09:20	59.0	59.0	59.0	88	55.4	1	4	270	0.00	29.928 
09:25	59.0	59.0	59.0	88	55.4	1	6	0	0.00	29.931 
09:30	59.2	59.2	59.2	88	55.6	1	4	270	0.00	29.932 
09:35	59.0	59.0	59.0	88	55.4	2	7	248	0.00	29.933 
09:40	59.2	59.2	59.2	88	55.6	2	4	270	0.00	29.933 
09:45	59.3	59.3	59.3	88	55.7	2	6	45	0.00	29.934 
09:50	59.5	59.5	59.5	88	55.9	2	6	248	0.00	29.934 
09:55	59.6	59.6	59.6	87	55.7	3	10	68	0.00	29.934 
10:00	59.8	59.8	59.8	87	55.9	2	6	248	0.00	29.934 
10:05	59.8	59.8	59.8	87	55.9	2	8	248	0.00	29.935 
10:10	59.9	59.9	59.9	86	55.7	3	10	248	0.00	29.934 
10:15	59.9	59.9	59.9	86	55.7	2	6	202	0.00	29.933 
10:20	60.1	60.1	60.1	86	55.9	2	11	225	0.00	29.934 
10:25	60.4	60.4	60.4	86	56.2	2	9	248	0.00	29.934 
10:30	60.7	60.7	60.7	85	56.2	2	7	248	0.00	29.933 
10:35	60.9	60.9	60.9	85	56.4	3	10	248	0.00	29.934 
10:40	61.0	61.0	61.0	84	56.1	4	10	248	0.00	29.933 
10:45	61.2	61.2	61.2	84	56.3	3	10	338	0.00	29.933 
10:50	61.5	61.5	61.5	84	56.6	2	6	248	0.00	29.932 
10:55	61.6	61.6	61.6	84	56.7	3	7	248	0.00	29.931 
11:00	61.8	61.8	61.8	83	56.6	4	13	270	0.00	29.928 
11:05	62.1	62.1	62.1	83	56.9	3	13	270	0.00	29.922 
11:10	62.3	62.3	62.3	83	57.1	4	11	248	0.00	29.919 
11:15	62.6	62.6	62.6	82	57.0	4	10	248	0.00	29.919 
11:20	62.9	62.9	62.9	82	57.3	4	9	248	0.00	29.917 
11:25	63.2	63.2	63.2	81	57.3	4	12	248	0.00	29.916 
11:30	63.7	63.7	63.7	80	57.4	4	10	248	0.00	29.914 
11:35	63.9	63.9	63.9	80	57.6	3	13	248	0.00	29.912 
11:40	63.9	63.9	63.9	80	57.6	4	11	248	0.00	29.910 
11:45	63.9	63.9	63.9	79	57.3	4	11	248	0.00	29.902 
11:50	64.0	64.0	64.0	79	57.4	3	9	270	0.00	29.899 
11:55	64.3	64.3	64.3	78	57.3	5	11	248	0.00	29.897 
12:00	64.7	64.7	64.7	77	57.3	5	14	248	0.00	29.896 
12:05	64.8	64.8	64.8	77	57.4	4	7	248	0.00	29.895 
12:10	64.8	64.8	64.8	76	57.0	5	15	248	0.00	29.891 
12:15	64.7	64.7	64.7	77	57.3	6	12	248	0.00	29.886 
12:20	64.7	64.7	64.7	77	57.3	4	10	270	0.00	29.888 
12:25	64.7	64.7	64.7	76	57.0	5	12	270	0.00	29.892 
12:30	64.7	64.7	64.7	77	57.3	5	11	248	0.00	29.889 
12:35	64.7	64.7	64.7	77	57.3	5	13	248	0.00	29.886 
12:40	64.8	64.8	64.8	76	57.0	5	12	248	0.00	29.884 
12:45	65.0	65.0	65.0	76	57.2	5	11	270	0.00	29.881 
12:50	65.0	65.0	65.0	76	57.2	3	8	270	0.00	29.877 
12:55	65.2	65.2	65.2	75	57.1	4	13	270	0.00	29.871 
13:00	65.2	65.2	65.2	75	57.1	6	14	248	0.00	29.872 
13:05	65.2	65.2	65.2	75	57.1	5	12	270	0.00	29.868 
13:10	65.3	65.3	65.3	74	56.8	4	13	248	0.00	29.865 
13:15	65.3	65.3	65.3	74	56.8	4	8	248	0.00	29.863 
13:20	65.5	65.5	65.5	74	57.0	5	15	270	0.00	29.860 
13:25	65.5	65.5	65.5	73	56.6	6	16	248	0.00	29.859 
13:30	65.6	65.6	65.6	73	56.7	6	15	248	0.00	29.853 
13:35	65.6	65.6	65.6	73	56.7	5	13	248	0.00	29.858 
13:40	65.6	65.6	65.6	73	56.7	6	14	248	0.00	29.855 
13:45	65.8	65.8	65.8	73	56.9	4	12	248	0.00	29.851 
13:50	65.8	65.8	65.8	73	56.9	6	14	248	0.00	29.850 
13:55	65.8	65.8	65.8	73	56.9	4	13	248	0.00	29.850 
14:00	65.8	65.8	65.8	73	56.9	4	11	248	0.00	29.848 
14:05	66.1	66.1	66.1	72	56.8	5	11	270	0.00	29.844 
14:10	66.3	66.3	66.3	71	56.6	6	16	248	0.00	29.841 
14:15	66.3	66.3	66.3	71	56.6	7	16	248	0.00	29.837 
14:20	66.4	66.4	66.4	71	56.7	6	13	248	0.00	29.842 
14:25	66.4	66.4	66.4	71	56.7	6	17	248	0.00	29.843 
14:30	66.3	66.3	66.3	72	57.0	5	14	248	0.00	29.842 
14:35	66.0	66.0	66.0	72	56.7	5	12	270	0.00	29.845 
14:40	66.0	66.0	66.0	72	56.7	6	13	248	0.00	29.846 
14:45	65.8	65.8	65.8	73	56.9	5	14	248	0.00	29.844 
14:50	65.6	65.6	65.6	73	56.7	5	16	248	0.00	29.846 
14:55	65.5	65.5	65.5	73	56.6	4	13	270	0.00	29.845 
15:00	65.5	65.5	65.5	74	57.0	5	10	248	0.00	29.845 
15:05	65.5	65.5	65.5	74	57.0	5	11	248	0.00	29.847 
15:10	65.3	65.3	65.3	74	56.8	4	9	248	0.00	29.847 
15:15	65.2	65.2	65.2	74	56.7	5	10	248	0.00	29.846 
15:20	65.2	65.2	65.2	75	57.1	4	13	248	0.00	29.846 
15:25	65.2	65.2	65.2	75	57.1	3	7	248	0.00	29.847 
15:30	65.0	65.0	65.0	75	56.9	5	15	248	0.00	29.846 
15:35	65.0	65.0	65.0	75	56.9	3	10	248	0.00	29.847 
15:40	64.8	64.8	64.8	76	57.0	4	11	248	0.00	29.848 
15:45	64.8	64.8	64.8	76	57.0	4	11	248	0.00	29.848 
15:50	64.8	64.8	64.8	76	57.0	3	10	248	0.00	29.847 
15:55	64.8	64.8	64.8	76	57.0	4	10	225	0.00	29.848 
16:00	64.7	64.7	64.7	76	57.0	5	11	248	0.00	29.848 
16:05	64.7	64.7	64.7	76	57.0	3	10	270	0.00	29.847 
16:10	64.7	64.7	64.7	76	57.0	4	13	248	0.00	29.848 
16:15	64.5	64.5	64.5	76	56.8	5	15	248	0.00	29.848 
16:20	64.5	64.5	64.5	77	57.1	4	10	248	0.00	29.850 
16:25	64.3	64.3	64.3	77	56.9	4	10	248	0.00	29.854 
16:30	64.2	64.2	64.2	77	56.8	5	11	248	0.00	29.853 
16:35	64.0	64.0	64.0	77	56.6	4	13	248	0.00	29.856 
16:40	64.0	64.0	64.0	77	56.6	6	17	270	0.00	29.856 
16:45	63.9	63.9	63.9	77	56.5	5	12	270	0.00	29.855 
16:50	63.9	63.9	63.9	77	56.5	4	9	248	0.00	29.859 
16:55	63.5	63.5	63.5	78	56.5	3	9	270	0.00	29.863 
17:00	63.5	63.5	63.5	78	56.5	4	10	248	0.00	29.864 
17:05	63.4	63.4	63.4	79	56.8	3	10	248	0.00	29.867 
17:10	63.2	63.2	63.2	79	56.6	5	16	248	0.00	29.866 
17:15	63.2	63.2	63.2	79	56.6	5	11	270	0.00	29.867 
17:20	63.1	63.1	63.1	79	56.5	4	10	248	0.00	29.867 
17:25	62.9	62.9	62.9	76	55.2	3	7	248	0.00	29.868 
17:30	62.7	62.7	62.7	80	56.4	4	10	248	0.00	29.867 
17:35	62.7	62.7	62.7	80	56.4	3	12	248	0.00	29.868 
17:40	62.6	62.6	62.6	80	56.3	3	14	248	0.00	29.871 
17:45	62.6	62.6	62.6	80	56.3	3	11	248	0.00	29.871 
17:50	62.4	62.4	62.4	80	56.1	3	11	248	0.00	29.870 
17:55	62.4	62.4	62.4	81	56.5	3	10	248	0.00	29.874 
18:00	62.4	62.4	62.4	81	56.5	3	9	248	0.00	29.872 
18:05	62.3	62.3	62.3	81	56.4	4	10	248	0.00	29.870 
18:10	62.3	62.3	62.3	81	56.4	3	11	248	0.00	29.870 
18:15	62.3	62.3	62.3	81	56.4	4	9	248	0.00	29.867 
18:20	62.1	62.1	62.1	81	56.2	3	10	248	0.00	29.868 
18:25	62.1	62.1	62.1	81	56.2	3	10	248	0.00	29.869 
18:30	62.1	62.1	62.1	81	56.2	4	10	270	0.00	29.868 
18:35	62.1	62.1	62.1	81	56.2	3	8	248	0.00	29.868 
18:40	62.1	62.1	62.1	80	55.9	4	11	270	0.00	29.870 
18:45	62.1	62.1	62.1	80	55.9	3	5	270	0.00	29.868 
18:50	62.1	62.1	62.1	80	55.9	2	6	248	0.00	29.873 
18:55	62.3	62.3	62.3	80	56.0	4	12	270	0.00	29.880 
19:00	62.3	62.3	62.3	79	55.7	4	11	248	0.00	29.883 
19:05	62.4	62.4	62.4	79	55.8	3	11	248	0.00	29.883 
19:10	62.4	62.4	62.4	79	55.8	3	7	270	0.00	29.884 
19:15	62.4	62.4	62.4	79	55.8	4	11	248	0.00	29.884 
19:20	62.4	62.4	62.4	79	55.8	3	7	270	0.00	29.883 
19:25	62.4	62.4	62.4	79	55.8	3	6	248	0.00	29.883 
19:30	62.4	62.4	62.4	79	55.8	4	10	270	0.00	29.884 
19:35	62.4	62.4	62.4	79	55.8	3	11	248	0.00	29.883 
19:40	62.4	62.4	62.4	78	55.4	4	10	248	0.00	29.886 
19:45	62.4	62.4	62.4	78	55.4	3	12	270	0.00	29.883 
19:50	62.4	62.4	62.4	78	55.4	4	10	270	0.00	29.882 
19:55	62.4	62.4	62.4	78	55.4	3	10	248	0.00	29.884 
20:00	62.4	62.4	62.4	78	55.4	4	14	248	0.00	29.886 
20:05	62.4	62.4	62.4	78	55.4	3	9	248	0.00	29.884 
20:10	62.6	62.6	62.6	78	55.6	3	7	248	0.00	29.886 
20:15	62.6	62.6	62.6	77	55.3	3	10	248	0.00	29.886 
20:20	62.7	62.7	62.7	77	55.4	5	11	248	0.00	29.887 
20:25	62.7	62.7	62.7	77	55.4	3	11	248	0.00	29.889 
20:30	62.7	62.7	62.7	77	55.4	4	10	270	0.00	29.885 
20:35	62.7	62.7	62.7	77	55.4	3	10	248	0.00	29.884 
20:40	62.6	62.6	62.6	77	55.3	2	6	248	0.00	29.882 
20:45	62.4	62.4	62.4	77	55.1	3	10	248	0.00	29.883 
20:50	62.4	62.4	62.4	77	55.1	2	6	270	0.00	29.880 
20:55	62.4	62.4	62.4	77	55.1	3	6	248	0.00	29.875 
21:00	62.4	62.4	62.4	77	55.1	4	11	270	0.00	29.873 
21:05	62.3	62.3	62.3	77	55.0	3	9	248	0.00	29.870 
21:10	62.3	62.3	62.3	77	55.0	4	12	270	0.00	29.870 
21:15	62.3	62.3	62.3	77	55.0	4	15	270	0.00	29.869 
21:20	62.4	62.4	62.4	76	54.7	3	9	248	0.00	29.868 
21:25	62.4	62.4	62.4	76	54.7	4	10	248	0.00	29.870 
21:30	62.3	62.3	62.3	76	54.6	4	11	270	0.00	29.867 
21:35	62.3	62.3	62.3	76	54.6	4	10	248	0.00	29.868 
21:40	62.1	62.1	62.1	75	54.1	4	10	248	0.00	29.870 
21:45	62.3	62.3	62.3	75	54.3	4	13	248	0.00	29.874 
21:50	62.3	62.3	62.3	75	54.3	4	11	248	0.00	29.867 
21:55	62.1	62.1	62.1	74	53.7	3	7	270	0.00	29.870 
22:00	62.1	62.1	62.1	74	53.7	4	10	270	0.00	29.871 
22:05	62.3	62.3	62.3	73	53.5	4	10	248	0.00	29.876 
22:10	62.3	62.3	62.3	73	53.5	4	9	248	0.00	29.875 
22:15	62.3	62.3	62.3	73	53.5	4	10	248	0.00	29.879 
22:20	62.3	62.3	62.3	72	53.2	4	10	248	0.00	29.879 
22:25	62.4	62.4	62.4	72	53.2	4	13	270	0.00	29.879 
22:30	62.4	62.4	62.4	72	53.2	5	11	248	0.00	29.880 
22:35	62.3	62.3	62.3	72	53.2	3	8	248	0.00	29.880 
22:40	62.1	62.1	62.1	73	53.3	2	9	248	0.00	29.880 
22:45	61.6	61.6	61.6	77	54.3	3	6	248	0.00	29.878 
22:50	61.0	61.0	61.0	79	54.4	2	5	248	0.01	29.883 
22:55	60.5	60.5	60.5	80	54.3	3	7	248	0.00	29.893 
23:00	60.4	60.4	60.4	81	54.5	3	7	248	0.00	29.911 
23:05	59.9	59.9	59.9	82	54.4	3	6	270	0.00	29.927 
23:10	58.0	58.0	58.0	83	52.9	3	11	292	0.02	29.927 
23:15	56.2	56.2	56.2	86	52.1	3	10	292	0.05	29.941 
23:20	55.1	55.1	55.1	89	51.9	2	3	270	0.06	29.941 
23:25	54.5	54.5	54.5	91	51.9	2	9	270	0.04	29.946 
23:30	54.2	54.2	54.2	92	51.9	2	5	270	0.03	29.936 
23:35	54.1	54.1	54.1	93	52.1	1	4	270	0.02	29.933 
23:40	53.9	53.9	53.9	93	51.9	0	2	248	0.01	29.933 
23:45	53.8	53.8	53.8	94	52.1	0	3	248	0.01	29.931 
23:50	53.8	53.8	53.8	94	52.1	1	4	248	0.01	29.932 
23:55	53.8	53.8	53.8	94	52.1	0	1	248	0.01	29.927 

CoCoRaHS
IN-AL-39
A2 Web Hosting
Creative Commons License
GoDaddy
Look for:

loaded 2017-10-17 22:28:11 • last modified 2010-11-18 10:43:29
Privacy PolicyDisclaimer
• wx.awcolley.com is powered by PmWiki v.2002016 •
• all content (unless otherwise noted) © 2017 A W Colley